sensor_id;sensor_type;location;lat;lon;timestamp;P1;durP1;ratioP1;P2;durP2;ratioP2
47155;SDS011;32908;52.344;16.858;2023-01-31T00:49:24;7.13;;;2.50;;
47155;SDS011;32908;52.344;16.858;2023-01-31T00:51:54;12.67;;;2.77;;
47155;SDS011;32908;52.344;16.858;2023-01-31T00:54:25;12.57;;;2.43;;
47155;SDS011;32908;52.344;16.858;2023-01-31T00:56:56;7.93;;;2.50;;
47155;SDS011;32908;52.344;16.858;2023-01-31T00:59:27;10.87;;;2.03;;
47155;SDS011;32908;52.344;16.858;2023-01-31T01:01:58;7.50;;;2.50;;
47155;SDS011;32908;52.344;16.858;2023-01-31T01:04:29;11.17;;;2.27;;
47155;SDS011;32908;52.344;16.858;2023-01-31T01:06:59;10.70;;;2.90;;
47155;SDS011;32908;52.344;16.858;2023-01-31T01:09:30;8.80;;;2.60;;
47155;SDS011;32908;52.344;16.858;2023-01-31T01:12:01;10.77;;;2.20;;
47155;SDS011;32908;52.344;16.858;2023-01-31T01:14:33;10.87;;;2.13;;
47155;SDS011;32908;52.344;16.858;2023-01-31T01:17:04;7.90;;;2.57;;
47155;SDS011;32908;52.344;16.858;2023-01-31T01:19:34;7.50;;;2.20;;
47155;SDS011;32908;52.344;16.858;2023-01-31T01:22:05;11.27;;;3.07;;
47155;SDS011;32908;52.344;16.858;2023-01-31T01:24:36;8.27;;;2.60;;
47155;SDS011;32908;52.344;16.858;2023-01-31T01:27:07;13.23;;;3.03;;
47155;SDS011;32908;52.344;16.858;2023-01-31T01:29:37;9.77;;;2.57;;
47155;SDS011;32908;52.344;16.858;2023-01-31T01:32:08;10.80;;;2.57;;
47155;SDS011;32908;52.344;16.858;2023-01-31T01:34:39;8.43;;;1.73;;
47155;SDS011;32908;52.344;16.858;2023-01-31T01:37:10;9.33;;;2.07;;
47155;SDS011;32908;52.344;16.858;2023-01-31T01:39:47;7.07;;;2.03;;
47155;SDS011;32908;52.344;16.858;2023-01-31T01:42:20;8.43;;;2.10;;
47155;SDS011;32908;52.344;16.858;2023-01-31T01:44:52;6.43;;;1.77;;
47155;SDS011;32908;52.344;16.858;2023-01-31T01:47:28;8.43;;;2.23;;
47155;SDS011;32908;52.344;16.858;2023-01-31T01:50:05;13.90;;;4.47;;
47155;SDS011;32908;52.344;16.858;2023-01-31T01:52:39;8.43;;;2.57;;
47155;SDS011;32908;52.344;16.858;2023-01-31T01:55:14;10.43;;;2.83;;
47155;SDS011;32908;52.344;16.858;2023-01-31T01:57:48;11.20;;;2.80;;
47155;SDS011;32908;52.344;16.858;2023-01-31T02:00:20;10.30;;;2.10;;
47155;SDS011;32908;52.344;16.858;2023-01-31T02:02:54;10.60;;;2.17;;
47155;SDS011;32908;52.344;16.858;2023-01-31T02:05:29;10.60;;;2.20;;
47155;SDS011;32908;52.344;16.858;2023-01-31T02:08:01;8.93;;;2.17;;
47155;SDS011;32908;52.344;16.858;2023-01-31T02:10:33;8.23;;;2.07;;
47155;SDS011;32908;52.344;16.858;2023-01-31T02:13:08;10.40;;;2.23;;
47155;SDS011;32908;52.344;16.858;2023-01-31T02:15:40;11.30;;;2.10;;
47155;SDS011;32908;52.344;16.858;2023-01-31T02:18:12;8.70;;;2.63;;
47155;SDS011;32908;52.344;16.858;2023-01-31T02:20:47;10.63;;;2.27;;
47155;SDS011;32908;52.344;16.858;2023-01-31T02:29:36;8.43;;;2.33;;
47155;SDS011;32908;52.344;16.858;2023-01-31T02:32:28;11.17;;;2.40;;
47155;SDS011;32908;52.344;16.858;2023-01-31T02:35:10;7.30;;;2.27;;
47155;SDS011;32908;52.344;16.858;2023-01-31T02:37:47;9.73;;;1.97;;
47155;SDS011;32908;52.344;16.858;2023-01-31T02:40:22;11.73;;;2.80;;
47155;SDS011;32908;52.344;16.858;2023-01-31T02:43:12;10.35;;;2.20;;
47155;SDS011;32908;52.344;16.858;2023-01-31T02:45:50;10.80;;;2.50;;
47155;SDS011;32908;52.344;16.858;2023-01-31T05:57:55;6.53;;;1.90;;
47155;SDS011;32908;52.344;16.858;2023-01-31T06:00:27;10.70;;;2.00;;
47155;SDS011;32908;52.344;16.858;2023-01-31T06:02:58;11.10;;;2.13;;
47155;SDS011;32908;52.344;16.858;2023-01-31T06:05:29;7.33;;;2.23;;
47155;SDS011;32908;52.344;16.858;2023-01-31T06:08:00;8.67;;;1.97;;
47155;SDS011;32908;52.344;16.858;2023-01-31T06:10:31;10.30;;;2.40;;
47155;SDS011;32908;52.344;16.858;2023-01-31T06:13:02;11.50;;;2.33;;
47155;SDS011;32908;52.344;16.858;2023-01-31T06:15:34;12.93;;;2.40;;
47155;SDS011;32908;52.344;16.858;2023-01-31T06:18:05;9.30;;;2.33;;
47155;SDS011;32908;52.344;16.858;2023-01-31T06:20:36;11.73;;;2.70;;
47155;SDS011;32908;52.344;16.858;2023-01-31T06:23:07;9.70;;;2.63;;
47155;SDS011;32908;52.344;16.858;2023-01-31T06:25:37;11.33;;;3.20;;
47155;SDS011;32908;52.344;16.858;2023-01-31T06:28:08;11.13;;;3.23;;
47155;SDS011;32908;52.344;16.858;2023-01-31T06:30:39;13.90;;;3.60;;
47155;SDS011;32908;52.344;16.858;2023-01-31T06:33:10;13.10;;;4.17;;
47155;SDS011;32908;52.344;16.858;2023-01-31T06:35:41;15.57;;;5.20;;
47155;SDS011;32908;52.344;16.858;2023-01-31T06:38:11;14.00;;;4.50;;
47155;SDS011;32908;52.344;16.858;2023-01-31T06:40:43;17.57;;;4.33;;
47155;SDS011;32908;52.344;16.858;2023-01-31T06:43:13;12.80;;;4.77;;
47155;SDS011;32908;52.344;16.858;2023-01-31T06:45:44;16.73;;;4.50;;
47155;SDS011;32908;52.344;16.858;2023-01-31T06:48:16;13.27;;;4.30;;
47155;SDS011;32908;52.344;16.858;2023-01-31T06:50:47;21.70;;;4.90;;
47155;SDS011;32908;52.344;16.858;2023-01-31T06:53:18;15.03;;;3.90;;
47155;SDS011;32908;52.344;16.858;2023-01-31T06:55:49;14.33;;;4.03;;
47155;SDS011;32908;52.344;16.858;2023-01-31T06:58:20;10.90;;;3.30;;
47155;SDS011;32908;52.344;16.858;2023-01-31T07:00:51;14.07;;;3.13;;
47155;SDS011;32908;52.344;16.858;2023-01-31T07:03:21;15.77;;;3.80;;
47155;SDS011;32908;52.344;16.858;2023-01-31T07:05:52;15.73;;;4.23;;
47155;SDS011;32908;52.344;16.858;2023-01-31T07:08:23;13.73;;;3.60;;
47155;SDS011;32908;52.344;16.858;2023-01-31T07:10:54;17.43;;;4.00;;
47155;SDS011;32908;52.344;16.858;2023-01-31T07:13:25;11.33;;;3.53;;
47155;SDS011;32908;52.344;16.858;2023-01-31T07:15:56;11.73;;;3.43;;
47155;SDS011;32908;52.344;16.858;2023-01-31T07:18:27;11.90;;;4.23;;
47155;SDS011;32908;52.344;16.858;2023-01-31T07:20:58;13.73;;;3.97;;
47155;SDS011;32908;52.344;16.858;2023-01-31T07:23:29;12.07;;;3.30;;
47155;SDS011;32908;52.344;16.858;2023-01-31T07:26:02;14.00;;;3.57;;
47155;SDS011;32908;52.344;16.858;2023-01-31T07:28:33;16.07;;;4.50;;
47155;SDS011;32908;52.344;16.858;2023-01-31T07:31:05;14.83;;;4.00;;
47155;SDS011;32908;52.344;16.858;2023-01-31T07:33:37;13.00;;;3.70;;
47155;SDS011;32908;52.344;16.858;2023-01-31T07:36:10;19.10;;;4.40;;
47155;SDS011;32908;52.344;16.858;2023-01-31T07:38:42;13.40;;;3.97;;
47155;SDS011;32908;52.344;16.858;2023-01-31T07:41:13;9.93;;;2.87;;
47155;SDS011;32908;52.344;16.858;2023-01-31T07:43:44;10.40;;;3.90;;
47155;SDS011;32908;52.344;16.858;2023-01-31T07:46:15;14.20;;;3.97;;
47155;SDS011;32908;52.344;16.858;2023-01-31T07:48:45;13.00;;;4.20;;
47155;SDS011;32908;52.344;16.858;2023-01-31T07:51:16;8.90;;;3.03;;
47155;SDS011;32908;52.344;16.858;2023-01-31T07:53:47;16.67;;;4.77;;
47155;SDS011;32908;52.344;16.858;2023-01-31T07:56:19;11.83;;;3.53;;
47155;SDS011;32908;52.344;16.858;2023-01-31T16:05:50;20.05;;;11.80;;
47155;SDS011;32908;52.344;16.858;2023-01-31T16:08:24;22.07;;;12.80;;
47155;SDS011;32908;52.344;16.858;2023-01-31T16:10:58;20.70;;;13.57;;
47155;SDS011;32908;52.344;16.858;2023-01-31T16:13:31;22.40;;;13.83;;
47155;SDS011;32908;52.344;16.858;2023-01-31T16:16:04;21.03;;;14.17;;
47155;SDS011;32908;52.344;16.858;2023-01-31T16:18:37;20.37;;;14.03;;
47155;SDS011;32908;52.344;16.858;2023-01-31T16:21:15;23.20;;;12.57;;
47155;SDS011;32908;52.344;16.858;2023-01-31T16:24:00;17.83;;;10.93;;
47155;SDS011;32908;52.344;16.858;2023-01-31T16:26:37;20.93;;;11.10;;
47155;SDS011;32908;52.344;16.858;2023-01-31T16:29:12;23.40;;;12.40;;
47155;SDS011;32908;52.344;16.858;2023-01-31T16:31:45;24.70;;;12.13;;
47155;SDS011;32908;52.344;16.858;2023-01-31T16:34:20;19.60;;;11.23;;
47155;SDS011;32908;52.344;16.858;2023-01-31T16:36:57;20.70;;;10.23;;
47155;SDS011;32908;52.344;16.858;2023-01-31T16:39:39;17.00;;;9.50;;
47155;SDS011;32908;52.344;16.858;2023-01-31T16:42:30;16.40;;;8.80;;
47155;SDS011;32908;52.344;16.858;2023-01-31T16:45:02;19.43;;;9.97;;
47155;SDS011;32908;52.344;16.858;2023-01-31T16:47:46;16.03;;;8.00;;
47155;SDS011;32908;52.344;16.858;2023-01-31T16:50:29;17.87;;;9.20;;
47155;SDS011;32908;52.344;16.858;2023-01-31T16:53:11;17.53;;;8.80;;
47155;SDS011;32908;52.344;16.858;2023-01-31T16:55:46;16.43;;;9.10;;
47155;SDS011;32908;52.344;16.858;2023-01-31T16:58:47;22.90;;;9.57;;
47155;SDS011;32908;52.344;16.858;2023-01-31T17:01:20;17.53;;;9.43;;
47155;SDS011;32908;52.344;16.858;2023-01-31T17:04:02;20.00;;;9.50;;
47155;SDS011;32908;52.344;16.858;2023-01-31T17:06:46;19.53;;;10.23;;
47155;SDS011;32908;52.344;16.858;2023-01-31T17:09:19;19.03;;;10.13;;
47155;SDS011;32908;52.344;16.858;2023-01-31T17:11:51;18.93;;;9.27;;
47155;SDS011;32908;52.344;16.858;2023-01-31T17:14:23;18.73;;;9.20;;
47155;SDS011;32908;52.344;16.858;2023-01-31T17:16:54;18.03;;;8.47;;
47155;SDS011;32908;52.344;16.858;2023-01-31T17:19:24;16.67;;;8.17;;
47155;SDS011;32908;52.344;16.858;2023-01-31T17:21:55;17.93;;;9.23;;
47155;SDS011;32908;52.344;16.858;2023-01-31T17:24:26;15.63;;;7.97;;
47155;SDS011;32908;52.344;16.858;2023-01-31T17:26:57;20.53;;;9.13;;
47155;SDS011;32908;52.344;16.858;2023-01-31T17:29:28;18.50;;;8.37;;
47155;SDS011;32908;52.344;16.858;2023-01-31T17:31:59;19.43;;;9.30;;
47155;SDS011;32908;52.344;16.858;2023-01-31T17:34:30;15.20;;;8.70;;
47155;SDS011;32908;52.344;16.858;2023-01-31T17:37:01;14.67;;;8.30;;
47155;SDS011;32908;52.344;16.858;2023-01-31T17:39:32;24.10;;;9.97;;
47155;SDS011;32908;52.344;16.858;2023-01-31T17:42:04;17.80;;;8.90;;
47155;SDS011;32908;52.344;16.858;2023-01-31T17:44:37;16.47;;;9.23;;
47155;SDS011;32908;52.344;16.858;2023-01-31T17:47:08;17.70;;;9.47;;
47155;SDS011;32908;52.344;16.858;2023-01-31T17:49:39;16.30;;;9.53;;
47155;SDS011;32908;52.344;16.858;2023-01-31T17:52:10;17.60;;;9.70;;
47155;SDS011;32908;52.344;16.858;2023-01-31T17:54:41;16.00;;;9.33;;
47155;SDS011;32908;52.344;16.858;2023-01-31T17:57:12;13.97;;;8.93;;
47155;SDS011;32908;52.344;16.858;2023-01-31T17:59:43;15.40;;;9.03;;
47155;SDS011;32908;52.344;16.858;2023-01-31T18:02:13;14.97;;;8.43;;
47155;SDS011;32908;52.344;16.858;2023-01-31T18:53:27;10.63;;;6.90;;
47155;SDS011;32908;52.344;16.858;2023-01-31T18:55:59;11.10;;;7.33;;
47155;SDS011;32908;52.344;16.858;2023-01-31T18:58:32;10.77;;;7.63;;
47155;SDS011;32908;52.344;16.858;2023-01-31T19:01:08;11.37;;;6.87;;
47155;SDS011;32908;52.344;16.858;2023-01-31T19:06:11;13.60;;;7.60;;
47155;SDS011;32908;52.344;16.858;2023-01-31T19:08:45;10.87;;;7.20;;
47155;SDS011;32908;52.344;16.858;2023-01-31T19:11:17;10.00;;;7.00;;
47155;SDS011;32908;52.344;16.858;2023-01-31T19:13:50;11.67;;;6.17;;
47155;SDS011;32908;52.344;16.858;2023-01-31T19:16:21;19.67;;;9.37;;
47155;SDS011;32908;52.344;16.858;2023-01-31T19:18:54;12.63;;;7.30;;
47155;SDS011;32908;52.344;16.858;2023-01-31T19:21:29;14.07;;;7.03;;
47155;SDS011;32908;52.344;16.858;2023-01-31T19:24:02;10.67;;;5.50;;
47155;SDS011;32908;52.344;16.858;2023-01-31T19:26:35;12.63;;;6.53;;
47155;SDS011;32908;52.344;16.858;2023-01-31T19:29:06;9.23;;;5.27;;
47155;SDS011;32908;52.344;16.858;2023-01-31T19:31:38;11.23;;;6.03;;
47155;SDS011;32908;52.344;16.858;2023-01-31T19:34:09;10.00;;;6.90;;
47155;SDS011;32908;52.344;16.858;2023-01-31T19:36:40;16.90;;;9.03;;
47155;SDS011;32908;52.344;16.858;2023-01-31T19:39:13;30.27;;;18.03;;
47155;SDS011;32908;52.344;16.858;2023-01-31T19:41:44;16.57;;;11.40;;
47155;SDS011;32908;52.344;16.858;2023-01-31T19:44:15;14.90;;;8.83;;
47155;SDS011;32908;52.344;16.858;2023-01-31T19:46:47;19.57;;;9.80;;
47155;SDS011;32908;52.344;16.858;2023-01-31T19:49:19;29.60;;;10.40;;
47155;SDS011;32908;52.344;16.858;2023-01-31T19:51:51;24.87;;;10.40;;
47155;SDS011;32908;52.344;16.858;2023-01-31T19:54:23;47.67;;;17.53;;
47155;SDS011;32908;52.344;16.858;2023-01-31T19:56:56;31.53;;;11.93;;
47155;SDS011;32908;52.344;16.858;2023-01-31T19:59:27;25.70;;;10.60;;
47155;SDS011;32908;52.344;16.858;2023-01-31T20:02:00;22.03;;;14.47;;
47155;SDS011;32908;52.344;16.858;2023-01-31T20:04:32;15.93;;;8.20;;
47155;SDS011;32908;52.344;16.858;2023-01-31T20:07:05;11.10;;;6.70;;
47155;SDS011;32908;52.344;16.858;2023-01-31T20:09:38;16.00;;;7.15;;
47155;SDS011;32908;52.344;16.858;2023-01-31T20:12:10;10.43;;;5.57;;
47155;SDS011;32908;52.344;16.858;2023-01-31T20:14:42;10.23;;;5.67;;
47155;SDS011;32908;52.344;16.858;2023-01-31T20:17:14;12.40;;;6.17;;
47155;SDS011;32908;52.344;16.858;2023-01-31T20:19:47;10.10;;;6.17;;
47155;SDS011;32908;52.344;16.858;2023-01-31T20:22:19;18.10;;;7.23;;
47155;SDS011;32908;52.344;16.858;2023-01-31T20:24:52;13.83;;;7.30;;
47155;SDS011;32908;52.344;16.858;2023-01-31T20:27:24;12.70;;;6.83;;
47155;SDS011;32908;52.344;16.858;2023-01-31T20:30:00;9.60;;;5.65;;
47155;SDS011;32908;52.344;16.858;2023-01-31T20:32:33;10.93;;;5.80;;
47155;SDS011;32908;52.344;16.858;2023-01-31T20:35:07;7.97;;;5.37;;
47155;SDS011;32908;52.344;16.858;2023-01-31T20:37:39;10.97;;;6.23;;
47155;SDS011;32908;52.344;16.858;2023-01-31T20:40:11;7.17;;;5.17;;
47155;SDS011;32908;52.344;16.858;2023-01-31T20:42:43;8.57;;;4.40;;
47155;SDS011;32908;52.344;16.858;2023-01-31T20:45:15;7.63;;;4.63;;
47155;SDS011;32908;52.344;16.858;2023-01-31T20:47:47;11.80;;;6.30;;
47155;SDS011;32908;52.344;16.858;2023-01-31T20:50:19;10.90;;;5.57;;
47155;SDS011;32908;52.344;16.858;2023-01-31T20:52:53;11.23;;;5.80;;
